createdAt,value
2023-05-19T00:01:36.482Z,56.72
2023-05-19T00:04:03.946Z,56.90
2023-05-19T00:06:32.796Z,58.84
2023-05-19T00:09:00.880Z,57.24
2023-05-19T00:11:28.795Z,57.05
2023-05-19T00:13:56.496Z,57.55
2023-05-19T00:16:24.104Z,57.09
2023-05-19T00:18:57.583Z,56.12
2023-05-19T00:21:24.220Z,56.68
2023-05-19T00:23:50.921Z,55.73
2023-05-19T00:26:17.923Z,56.08
2023-05-19T00:28:56.081Z,57.67
2023-05-19T00:31:25.040Z,56.46
2023-05-19T00:33:53.185Z,55.48
2023-05-19T00:36:19.930Z,56.78
2023-05-19T00:38:49.383Z,57.05
2023-05-19T00:41:16.082Z,55.25
2023-05-19T00:43:42.841Z,56.49
2023-05-19T00:46:09.590Z,55.93
2023-05-19T00:48:36.230Z,58.08
2023-05-19T00:51:05.266Z,57.13
2023-05-19T00:53:36.012Z,55.79
2023-05-19T00:56:03.436Z,56.50
2023-05-19T00:58:33.642Z,56.53
2023-05-19T01:01:00.796Z,56.12
2023-05-19T01:03:27.867Z,56.24
2023-05-19T01:05:54.608Z,56.22
2023-05-19T01:08:23.037Z,56.56
2023-05-19T01:10:52.514Z,57.85
2023-05-19T01:13:19.267Z,56.20
2023-05-19T01:16:01.514Z,56.72
2023-05-19T01:18:40.995Z,56.63
2023-05-19T01:21:26.094Z,56.87
2023-05-19T01:24:04.607Z,58.14
2023-05-19T01:27:09.507Z,57.42
2023-05-19T01:29:45.175Z,57.32
2023-05-19T01:32:21.010Z,58.13
2023-05-19T01:34:50.751Z,57.63
2023-05-19T01:37:18.039Z,57.53
2023-05-19T01:39:46.546Z,58.37
2023-05-19T01:42:15.085Z,58.61
2023-05-19T01:44:44.577Z,58.96
2023-05-19T01:47:12.962Z,57.50
2023-05-19T01:49:39.621Z,58.38
2023-05-19T01:52:06.467Z,60.48
2023-05-19T01:54:33.517Z,58.47
2023-05-19T01:57:06.163Z,59.23
2023-05-19T01:59:42.121Z,59.11
2023-05-19T02:02:21.247Z,59.92
2023-05-19T02:04:55.683Z,59.64
2023-05-19T02:07:31.027Z,60.06
2023-05-19T02:10:04.631Z,60.19
2023-05-19T02:12:34.346Z,60.53
2023-05-19T02:15:10.180Z,60.25
2023-05-19T02:17:44.078Z,60.32
2023-05-19T02:20:11.642Z,59.37
2023-05-19T02:22:38.204Z,62.03
2023-05-19T02:25:05.451Z,59.99
2023-05-19T02:27:33.202Z,59.94
2023-05-19T02:30:00.005Z,59.43
2023-05-19T02:32:26.524Z,59.80
2023-05-19T02:34:54.856Z,60.58
2023-05-19T02:39:51.337Z,61.04
2023-05-19T02:42:17.963Z,60.68
2023-05-19T02:44:47.345Z,61.11
2023-05-19T02:47:14.084Z,60.45
2023-05-19T02:49:41.402Z,61.05
2023-05-19T02:52:09.637Z,60.29
2023-05-19T02:54:36.544Z,61.93
2023-05-19T02:57:11.342Z,60.15
2023-05-19T02:59:41.799Z,61.47
2023-05-19T03:02:10.751Z,60.92
2023-05-19T03:04:37.473Z,62.68
2023-05-19T03:07:04.642Z,62.63
2023-05-19T03:09:32.831Z,61.16
2023-05-19T03:11:59.882Z,63.44
2023-05-19T03:14:33.977Z,61.47
2023-05-19T03:17:06.276Z,63.60
2023-05-19T03:19:34.919Z,63.50
2023-05-19T03:22:02.185Z,63.49
2023-05-19T03:24:32.200Z,63.25
2023-05-19T03:27:06.482Z,62.69
2023-05-19T03:29:33.376Z,62.17
2023-05-19T03:32:00.380Z,62.47
2023-05-19T03:34:29.225Z,62.66
2023-05-19T03:36:58.589Z,64.14
2023-05-19T03:39:25.579Z,62.78
2023-05-19T03:41:56.976Z,63.40
2023-05-19T03:44:28.059Z,61.91
2023-05-19T03:46:59.083Z,62.89
2023-05-19T03:49:46.886Z,62.78
2023-05-19T03:52:40.491Z,61.82
2023-05-19T03:55:21.941Z,62.36
2023-05-19T03:57:48.836Z,63.74
2023-05-19T04:00:19.626Z,63.83
2023-05-19T04:02:46.783Z,64.09
2023-05-19T04:05:16.181Z,64.51
2023-05-19T04:07:46.085Z,63.76
2023-05-19T04:10:14.927Z,63.97
2023-05-19T04:12:59.570Z,64.03
2023-05-19T04:15:30.444Z,64.80
2023-05-19T04:17:58.587Z,65.13
2023-05-19T04:20:34.345Z,64.77
2023-05-19T04:23:05.683Z,63.75
2023-05-19T04:25:34.521Z,64.20
2023-05-19T04:28:09.671Z,65.32
2023-05-19T04:30:43.515Z,64.69
2023-05-19T04:33:13.008Z,64.44
2023-05-19T04:35:53.664Z,63.30
2023-05-19T04:38:26.553Z,64.13
2023-05-19T04:40:58.343Z,63.46
2023-05-19T04:43:26.564Z,65.31
2023-05-19T04:45:57.622Z,65.75
2023-05-19T04:48:27.811Z,65.02
2023-05-19T04:51:01.815Z,66.62
2023-05-19T04:53:29.010Z,66.04
2023-05-19T04:55:58.884Z,64.29
2023-05-19T04:58:29.074Z,64.64
2023-05-19T05:00:57.346Z,65.28
2023-05-19T05:03:26.876Z,65.84
2023-05-19T05:05:55.585Z,66.24
2023-05-19T05:08:23.852Z,64.64
2023-05-19T05:10:52.409Z,65.78
2023-05-19T05:13:25.699Z,66.16
2023-05-19T05:15:53.884Z,65.45
2023-05-19T05:18:24.541Z,65.83
2023-05-19T05:20:54.405Z,65.54
2023-05-19T05:23:21.823Z,64.38
2023-05-19T05:25:49.946Z,63.81
2023-05-19T05:28:16.992Z,65.03
2023-05-19T05:30:44.646Z,65.35
2023-05-19T05:33:21.965Z,64.76
2023-05-19T05:35:50.466Z,65.71
2023-05-19T05:38:29.109Z,63.83
2023-05-19T05:40:59.566Z,64.02
2023-05-19T05:43:33.509Z,64.28
2023-05-19T05:46:06.766Z,65.63
2023-05-19T05:48:36.224Z,63.17
2023-05-19T05:51:12.381Z,63.70
2023-05-19T05:54:01.028Z,63.04
2023-05-19T05:56:37.310Z,63.00
2023-05-19T05:59:11.654Z,61.36
2023-05-19T06:01:43.842Z,61.71
2023-05-19T06:04:15.521Z,62.11
2023-05-19T06:06:57.217Z,61.62
2023-05-19T06:09:33.806Z,60.56
2023-05-19T06:12:01.727Z,64.70
2023-05-19T06:14:33.395Z,59.79
2023-05-19T06:17:21.888Z,58.47
2023-05-19T06:19:50.542Z,57.15
2023-05-19T06:22:18.716Z,59.13
2023-05-19T06:24:45.543Z,56.75
2023-05-19T06:27:15.318Z,55.65
2023-05-19T06:29:46.538Z,56.35
2023-05-19T06:32:13.685Z,58.72
2023-05-19T06:34:43.835Z,55.93
2023-05-19T06:37:10.575Z,54.58
2023-05-19T06:39:42.034Z,58.98
2023-05-19T06:42:08.764Z,56.47
2023-05-19T06:44:57.932Z,53.28
2023-05-19T06:47:26.923Z,56.90
2023-05-19T06:49:53.732Z,52.85
2023-05-19T06:52:25.001Z,51.88
2023-05-19T06:54:54.053Z,53.06
2023-05-19T06:57:22.982Z,54.23
2023-05-19T06:59:57.157Z,52.82
2023-05-19T07:02:24.375Z,53.64
2023-05-19T07:04:51.282Z,53.80
2023-05-19T07:07:20.384Z,53.50
2023-05-19T07:09:47.334Z,53.09
2023-05-19T07:12:17.213Z,53.50
2023-05-19T07:14:43.847Z,50.69
2023-05-19T07:17:11.256Z,51.28
2023-05-19T07:19:42.261Z,52.72
2023-05-19T07:22:09.114Z,51.01
2023-05-19T07:24:40.537Z,49.58
2023-05-19T07:27:10.419Z,48.01
2023-05-19T07:29:41.234Z,53.21
2023-05-19T07:32:08.120Z,49.17
2023-05-19T07:34:39.247Z,49.09
2023-05-19T07:37:06.123Z,50.70
2023-05-19T07:39:35.070Z,51.04
2023-05-19T07:42:08.915Z,51.14
2023-05-19T07:44:39.585Z,49.99
2023-05-19T07:47:09.121Z,49.81
2023-05-19T07:49:35.866Z,49.13
2023-05-19T07:52:04.919Z,49.66
2023-05-19T07:54:37.312Z,52.91
2023-05-19T07:57:10.452Z,51.12
2023-05-19T07:59:38.770Z,49.32
2023-05-19T08:02:07.282Z,47.24
2023-05-19T08:04:41.365Z,47.99
2023-05-19T08:07:08.217Z,44.45
2023-05-19T08:09:34.924Z,43.28
2023-05-19T08:12:04.534Z,44.79
2023-05-19T08:14:36.402Z,43.77
2023-05-19T08:17:04.463Z,46.19
2023-05-19T08:19:37.454Z,42.27
2023-05-19T08:22:04.617Z,43.61
2023-05-19T08:24:31.236Z,46.60
2023-05-19T08:27:00.895Z,46.45
2023-05-19T08:29:31.183Z,44.81
2023-05-19T08:31:59.363Z,45.10
2023-05-19T08:34:26.085Z,46.33
2023-05-19T08:36:58.461Z,46.16
2023-05-19T08:39:25.419Z,47.05
2023-05-19T08:42:02.613Z,46.60
2023-05-19T08:44:29.409Z,46.57
2023-05-19T08:47:52.048Z,44.34
2023-05-19T08:50:52.224Z,44.48
2023-05-19T08:56:14.043Z,42.49
2023-05-19T08:58:49.766Z,44.37
2023-05-19T09:01:23.554Z,42.56
2023-05-19T09:03:53.152Z,44.17
2023-05-19T09:06:22.803Z,42.56
2023-05-19T09:08:50.881Z,44.11
2023-05-19T09:11:17.829Z,44.32
2023-05-19T09:13:51.889Z,43.86
2023-05-19T09:16:21.128Z,42.90
2023-05-19T09:18:57.351Z,46.01
2023-05-19T09:21:34.395Z,45.62
2023-05-19T09:24:07.169Z,43.64
2023-05-19T09:26:37.683Z,45.89
2023-05-19T09:29:12.501Z,44.71
2023-05-19T09:31:49.674Z,44.08
2023-05-19T09:34:16.680Z,44.38
2023-05-19T09:36:47.646Z,44.54
2023-05-19T09:39:16.713Z,44.31
2023-05-19T09:41:44.121Z,44.69
2023-05-19T09:44:13.773Z,44.50
2023-05-19T09:46:48.294Z,45.05
2023-05-19T09:49:19.496Z,43.73
2023-05-19T09:51:48.808Z,44.29
2023-05-19T09:54:20.397Z,44.91
2023-05-19T09:56:51.848Z,40.62
2023-05-19T09:59:19.947Z,39.83
2023-05-19T10:01:47.285Z,39.33
2023-05-19T10:04:16.095Z,39.46
2023-05-19T10:06:43.928Z,39.23
2023-05-19T10:09:16.097Z,39.51
2023-05-19T10:11:44.233Z,40.77
2023-05-19T10:14:11.079Z,44.13
2023-05-19T10:16:44.459Z,37.83
2023-05-19T10:19:22.770Z,38.90
2023-05-19T10:21:51.287Z,37.81
2023-05-19T10:24:20.994Z,38.69
2023-05-19T10:26:51.231Z,37.63
2023-05-19T10:29:24.233Z,39.01
2023-05-19T10:31:55.331Z,38.21
2023-05-19T10:34:39.652Z,37.84
2023-05-19T10:37:17.193Z,38.24
2023-05-19T10:39:46.521Z,38.34
2023-05-19T10:42:18.877Z,39.90
2023-05-19T10:44:58.733Z,37.06
2023-05-19T10:47:48.133Z,39.95
2023-05-19T10:50:19.690Z,38.83
2023-05-19T10:52:59.660Z,38.77
2023-05-19T10:55:50.260Z,40.04
2023-05-19T10:58:49.586Z,37.89
2023-05-19T11:01:19.232Z,38.15
2023-05-19T11:03:46.886Z,37.55
2023-05-19T11:06:21.666Z,40.00
2023-05-19T11:08:52.916Z,38.24
2023-05-19T11:11:23.655Z,38.78
2023-05-19T11:13:56.881Z,40.28
2023-05-19T11:16:27.724Z,43.53
2023-05-19T11:19:02.890Z,39.31
2023-05-19T11:21:48.133Z,40.20
2023-05-19T11:24:39.101Z,41.06
2023-05-19T11:27:26.233Z,42.80
2023-05-19T11:29:57.390Z,40.16
2023-05-19T11:32:27.579Z,43.25
2023-05-19T11:34:57.989Z,44.12
2023-05-19T11:37:25.883Z,43.09
2023-05-19T11:39:52.943Z,41.86
2023-05-19T11:42:22.548Z,41.69
2023-05-19T11:44:58.034Z,44.25
2023-05-19T11:47:26.658Z,48.21
2023-05-19T11:49:56.381Z,44.29
2023-05-19T11:52:26.161Z,43.21
2023-05-19T11:54:52.836Z,42.15
2023-05-19T11:57:19.957Z,39.95
2023-05-19T11:59:49.561Z,41.47
2023-05-19T12:02:18.857Z,42.60
2023-05-19T12:04:46.048Z,39.61
2023-05-19T12:07:13.038Z,43.10
2023-05-19T12:09:42.896Z,41.99
2023-05-19T12:12:09.693Z,40.53
2023-05-19T12:14:37.542Z,39.96
2023-05-19T12:17:10.987Z,41.85
2023-05-19T12:19:43.678Z,40.25
2023-05-19T12:22:10.884Z,40.04
2023-05-19T12:24:41.021Z,40.38
2023-05-19T12:27:13.250Z,38.86
2023-05-19T12:29:43.054Z,40.95
2023-05-19T12:32:10.171Z,41.00
2023-05-19T12:34:37.342Z,39.70
2023-05-19T12:37:06.209Z,43.80
2023-05-19T12:39:33.041Z,40.55
2023-05-19T12:42:03.199Z,40.40
2023-05-19T12:44:31.540Z,38.54
2023-05-19T12:47:00.950Z,37.24
2023-05-19T12:49:30.466Z,39.67
2023-05-19T12:51:57.194Z,36.79
2023-05-19T12:54:27.907Z,36.52
2023-05-19T12:56:57.469Z,36.67
2023-05-19T12:59:37.398Z,36.76
2023-05-19T13:02:10.347Z,36.83
2023-05-19T13:04:39.665Z,37.22
2023-05-19T13:07:06.198Z,37.85
2023-05-19T13:09:39.611Z,37.14
2023-05-19T13:12:06.498Z,36.58
2023-05-19T13:14:33.286Z,36.43
2023-05-19T13:16:59.945Z,36.30
2023-05-19T13:19:26.686Z,38.48
2023-05-19T13:21:53.614Z,37.18
2023-05-19T13:24:23.144Z,36.74
2023-05-19T13:26:51.646Z,37.09
2023-05-19T13:29:18.860Z,36.44
2023-05-19T13:31:48.500Z,36.54
2023-05-19T13:34:15.149Z,34.98
2023-05-19T13:36:41.883Z,35.91
2023-05-19T13:39:26.348Z,36.36
2023-05-19T13:41:54.552Z,36.99
2023-05-19T13:44:23.068Z,37.48
2023-05-19T13:46:50.741Z,38.06
2023-05-19T13:49:23.820Z,38.12
2023-05-19T13:51:50.446Z,39.18
2023-05-19T13:54:17.811Z,39.11
2023-05-19T13:56:44.593Z,39.72
2023-05-19T13:59:12.468Z,38.83
2023-05-19T14:01:41.632Z,40.33
2023-05-19T14:04:08.321Z,39.82
2023-05-19T14:06:34.999Z,39.92
2023-05-19T14:09:04.295Z,40.64
2023-05-19T14:11:30.877Z,41.30
2023-05-19T14:13:57.817Z,40.77
2023-05-19T14:16:25.821Z,41.23
2023-05-19T14:18:55.277Z,40.74
2023-05-19T14:21:22.113Z,41.02
2023-05-19T14:23:50.817Z,41.24
2023-05-19T14:26:17.372Z,41.71
2023-05-19T14:28:43.954Z,43.48
2023-05-19T14:31:11.228Z,43.54
2023-05-19T14:33:40.381Z,42.53
2023-05-19T14:36:07.613Z,44.26
2023-05-19T14:38:34.269Z,44.64
2023-05-19T14:41:01.005Z,45.63
2023-05-19T14:43:34.583Z,46.10
2023-05-19T14:46:01.330Z,45.15
2023-05-19T14:48:35.200Z,46.16
2023-05-19T14:51:25.190Z,43.08
2023-05-19T14:53:52.094Z,44.17
2023-05-19T14:56:18.694Z,43.66
2023-05-19T14:58:47.714Z,46.31
2023-05-19T15:01:17.455Z,45.37
2023-05-19T15:03:44.271Z,44.35
2023-05-19T15:06:12.330Z,44.96
2023-05-19T15:08:41.106Z,44.08
2023-05-19T15:11:07.725Z,44.22
2023-05-19T15:13:34.265Z,43.79
2023-05-19T15:16:16.097Z,44.70
2023-05-19T15:18:44.094Z,43.44
2023-05-19T15:21:12.272Z,43.27
2023-05-19T15:23:38.966Z,43.89
2023-05-19T15:26:05.692Z,44.10
2023-05-19T15:28:32.330Z,44.40
2023-05-19T15:30:58.894Z,45.54
2023-05-19T15:33:25.582Z,44.65
2023-05-19T15:35:52.167Z,45.77
2023-05-19T15:38:20.335Z,44.11
2023-05-19T15:40:47.001Z,45.85
2023-05-19T15:43:13.573Z,45.78
2023-05-19T15:45:40.071Z,43.91
2023-05-19T15:48:08.114Z,45.08
2023-05-19T15:50:38.923Z,46.77
2023-05-19T15:53:05.625Z,45.48
2023-05-19T15:55:33.495Z,48.03
2023-05-19T15:58:00.235Z,46.33
2023-05-19T16:00:26.811Z,48.08
2023-05-19T16:02:53.369Z,46.42
2023-05-19T16:05:20.335Z,46.71
2023-05-19T16:07:46.732Z,46.34
2023-05-19T16:10:13.333Z,47.02
2023-05-19T16:12:41.142Z,49.50
2023-05-19T16:15:13.057Z,48.81
2023-05-19T16:17:39.964Z,47.44
2023-05-19T16:20:07.653Z,49.04
2023-05-19T16:22:34.193Z,48.50
2023-05-19T16:25:00.682Z,49.48
2023-05-19T16:27:27.114Z,47.72
2023-05-19T16:29:54.975Z,49.53
2023-05-19T16:32:21.438Z,48.98
2023-05-19T16:34:47.933Z,48.83
2023-05-19T16:37:17.504Z,50.93
2023-05-19T16:39:44.343Z,50.71
2023-05-19T16:42:10.837Z,48.88
2023-05-19T16:44:37.308Z,48.44
2023-05-19T16:47:05.171Z,49.47
2023-05-19T16:49:31.756Z,48.32
2023-05-19T16:51:58.199Z,50.23
2023-05-19T16:54:24.821Z,50.14
2023-05-19T16:56:51.839Z,50.21
2023-05-19T16:59:20.584Z,50.19
2023-05-19T17:01:47.268Z,49.54
2023-05-19T17:04:15.074Z,50.93
2023-05-19T17:06:41.611Z,51.36
2023-05-19T17:09:08.221Z,51.05
2023-05-19T17:11:34.673Z,52.24
2023-05-19T17:14:01.345Z,50.28
2023-05-19T17:16:27.952Z,50.71
2023-05-19T17:18:57.149Z,51.27
2023-05-19T17:21:54.614Z,52.12
2023-05-19T17:24:23.285Z,51.52
2023-05-19T17:26:52.639Z,52.33
2023-05-19T17:29:19.165Z,52.82
2023-05-19T17:31:45.757Z,53.38
2023-05-19T17:34:12.280Z,53.09
2023-05-19T17:36:41.021Z,53.45
2023-05-19T17:39:07.506Z,54.29
2023-05-19T17:41:33.961Z,54.09
2023-05-19T17:44:02.982Z,54.20
2023-05-19T17:46:35.374Z,53.55
2023-05-19T17:49:04.570Z,53.43
2023-05-19T17:51:31.639Z,53.98
2023-05-19T17:54:00.326Z,54.51
2023-05-19T17:56:27.152Z,56.03
2023-05-19T17:59:01.510Z,55.02
2023-05-19T18:01:30.355Z,55.75
2023-05-19T18:03:57.547Z,55.50
2023-05-19T18:06:27.746Z,56.14
2023-05-19T18:08:57.820Z,56.35
2023-05-19T18:11:26.269Z,56.35
2023-05-19T18:13:52.809Z,56.80
2023-05-19T18:16:19.337Z,56.68
2023-05-19T18:18:45.952Z,56.66
2023-05-19T18:21:12.436Z,56.46
2023-05-19T18:23:38.863Z,58.47
2023-05-19T18:26:21.616Z,56.61
2023-05-19T18:28:52.252Z,59.05
2023-05-19T18:31:18.703Z,57.90
2023-05-19T18:33:45.948Z,57.73
2023-05-19T18:36:12.586Z,58.55
2023-05-19T18:38:39.208Z,58.50
2023-05-19T18:41:07.199Z,59.17
2023-05-19T18:43:38.307Z,58.69
2023-05-19T18:46:11.503Z,59.50
2023-05-19T18:48:38.200Z,59.37
2023-05-19T18:51:04.684Z,59.55
2023-05-19T18:53:33.007Z,59.74
2023-05-19T18:56:03.636Z,62.24
2023-05-19T18:58:33.292Z,60.89
2023-05-19T19:01:00.012Z,60.81
2023-05-19T19:03:27.962Z,59.90
2023-05-19T19:05:55.001Z,62.48
2023-05-19T19:08:24.491Z,61.68
2023-05-19T19:10:51.763Z,61.26
2023-05-19T19:13:21.633Z,61.91
2023-05-19T19:15:48.163Z,62.12
2023-05-19T19:18:14.741Z,61.79
2023-05-19T19:20:42.653Z,61.62
2023-05-19T19:23:12.230Z,62.64
2023-05-19T19:25:38.797Z,62.82
2023-05-19T19:28:05.292Z,62.86
2023-05-19T19:30:33.602Z,61.57
2023-05-19T19:33:00.437Z,62.45
2023-05-19T19:35:27.000Z,62.85
2023-05-19T19:38:00.241Z,62.81
2023-05-19T19:40:26.866Z,62.15
2023-05-19T19:43:02.526Z,62.75
2023-05-19T19:45:29.097Z,62.68
2023-05-19T19:47:55.741Z,64.02
2023-05-19T19:50:24.891Z,65.64
2023-05-19T19:52:55.179Z,63.11
2023-05-19T19:55:21.917Z,63.83
2023-05-19T19:57:48.567Z,63.49
2023-05-19T20:00:20.581Z,64.62
2023-05-19T20:03:03.521Z,63.94
2023-05-19T20:05:31.387Z,64.18
2023-05-19T20:07:59.456Z,65.68
2023-05-19T20:10:27.849Z,65.52
2023-05-19T20:12:57.004Z,64.84
2023-05-19T20:15:23.513Z,64.88
2023-05-19T20:17:50.402Z,65.57
2023-05-19T20:20:17.957Z,64.91
2023-05-19T20:22:44.535Z,66.26
2023-05-19T20:25:12.472Z,66.03
2023-05-19T20:27:39.082Z,67.18
2023-05-19T20:30:06.962Z,66.37
2023-05-19T20:32:33.782Z,66.30
2023-05-19T20:35:00.521Z,66.78
2023-05-19T20:37:27.095Z,68.07
2023-05-19T20:39:53.969Z,66.66
2023-05-19T20:42:23.569Z,66.95
2023-05-19T20:44:52.624Z,68.18
2023-05-19T20:47:19.508Z,68.59
2023-05-19T20:49:46.200Z,67.79
2023-05-19T20:52:20.829Z,68.61
2023-05-19T20:54:47.644Z,68.02
2023-05-19T20:57:14.403Z,68.56
2023-05-19T20:59:42.663Z,68.08
2023-05-19T21:02:12.514Z,69.58
2023-05-19T21:04:41.204Z,68.73
2023-05-19T21:07:09.708Z,69.26
2023-05-19T21:09:36.451Z,69.57
2023-05-19T21:12:06.362Z,69.48
2023-05-19T21:14:33.322Z,69.40
2023-05-19T21:17:01.271Z,69.34
2023-05-19T21:19:28.104Z,69.89
2023-05-19T21:22:02.236Z,69.81
2023-05-19T21:24:28.858Z,70.21
2023-05-19T21:26:57.531Z,70.23
2023-05-19T21:29:24.146Z,70.46
2023-05-19T21:31:50.806Z,70.46
2023-05-19T21:34:19.137Z,70.57
2023-05-19T21:36:47.171Z,71.57
2023-05-19T21:39:14.812Z,72.15
2023-05-19T21:41:52.518Z,71.32
2023-05-19T21:44:21.740Z,71.65
2023-05-19T21:46:48.493Z,71.90
2023-05-19T21:49:17.167Z,71.89
2023-05-19T21:51:45.367Z,72.14
2023-05-19T21:54:12.304Z,71.76
2023-05-19T21:56:39.103Z,72.62
2023-05-19T21:59:09.112Z,73.49
2023-05-19T22:01:39.896Z,73.17
2023-05-19T22:04:06.698Z,73.73
2023-05-19T22:06:35.945Z,72.80
2023-05-19T22:09:06.686Z,72.97
2023-05-19T22:11:35.706Z,73.34
2023-05-19T22:14:04.130Z,73.71
2023-05-19T22:16:30.879Z,73.42
2023-05-19T22:18:57.822Z,74.06
2023-05-19T22:21:35.817Z,74.13
2023-05-19T22:24:07.017Z,74.26
2023-05-19T22:26:36.740Z,73.37
2023-05-19T22:29:03.501Z,74.25
2023-05-19T22:31:30.084Z,73.97
2023-05-19T22:33:58.446Z,73.40
2023-05-19T22:36:31.744Z,73.30
2023-05-19T22:39:05.847Z,74.01
2023-05-19T22:41:36.006Z,74.05
2023-05-19T22:44:02.693Z,73.42
2023-05-19T22:46:32.789Z,73.75
2023-05-19T22:49:01.647Z,73.76
2023-05-19T22:51:29.718Z,75.22
2023-05-19T22:53:58.327Z,74.62
2023-05-19T22:56:27.799Z,74.72
2023-05-19T22:58:56.725Z,73.39
2023-05-19T23:01:23.432Z,74.56
2023-05-19T23:03:51.555Z,73.57
2023-05-19T23:06:18.358Z,74.43
2023-05-19T23:08:46.152Z,74.15
2023-05-19T23:11:16.472Z,75.14
2023-05-19T23:13:44.913Z,74.50
2023-05-19T23:16:14.813Z,73.70
2023-05-19T23:18:43.595Z,74.37
2023-05-19T23:21:10.606Z,74.62
2023-05-19T23:23:38.809Z,75.27
2023-05-19T23:26:07.333Z,74.19
2023-05-19T23:28:36.871Z,74.72
2023-05-19T23:31:10.816Z,75.01
2023-05-19T23:33:37.775Z,74.85
2023-05-19T23:36:09.570Z,74.44
2023-05-19T23:38:39.150Z,76.18
2023-05-19T23:41:36.262Z,75.10
2023-05-19T23:44:05.384Z,75.74
2023-05-19T23:46:33.476Z,75.60
2023-05-19T23:49:00.221Z,77.30
2023-05-19T23:51:26.742Z,76.16
2023-05-19T23:54:00.253Z,75.44
2023-05-19T23:56:26.871Z,75.78
2023-05-19T23:58:53.493Z,75.05
